createdAt,value
2022-09-26T00:02:14.799Z,95729.09
2022-09-26T00:04:40.884Z,95722.31
2022-09-26T00:07:06.701Z,95714.41
2022-09-26T00:09:32.494Z,95715.72
2022-09-26T00:11:58.262Z,95710.84
2022-09-26T00:14:27.541Z,95702.41
2022-09-26T00:16:53.889Z,95697.25
2022-09-26T00:19:20.093Z,95692.31
2022-09-26T00:21:46.600Z,95684.69
2022-09-26T00:24:12.995Z,95684.63
2022-09-26T00:26:38.763Z,95683.16
2022-09-26T00:29:09.109Z,95682.63
2022-09-26T00:31:39.186Z,95672.59
2022-09-26T00:34:05.700Z,95674.31
2022-09-26T00:36:38.183Z,95680.22
2022-09-26T00:39:07.147Z,95666.16
2022-09-26T00:41:32.997Z,95674.69
2022-09-26T00:43:58.909Z,95666.75
2022-09-26T00:46:41.078Z,95664.47
2022-09-26T00:49:28.509Z,95661.88
2022-09-26T00:52:04.735Z,95647.97
2022-09-26T00:54:33.819Z,95651.22
2022-09-26T00:57:04.802Z,95645.34
2022-09-26T00:59:34.850Z,95633.81
2022-09-26T01:02:01.439Z,95638.72
2022-09-26T01:04:30.340Z,95625.84
2022-09-26T01:06:59.008Z,95619.09
2022-09-26T01:09:25.396Z,95618.34
2022-09-26T01:11:52.936Z,95613.19
2022-09-26T01:14:20.661Z,95602.19
2022-09-26T01:16:50.510Z,95602.09
2022-09-26T01:19:44.352Z,95599.94
2022-09-26T01:22:35.105Z,95594.38
2022-09-26T01:25:15.168Z,95586.41
2022-09-26T01:27:56.469Z,95585.69
2022-09-26T01:30:25.772Z,95584.59
2022-09-26T01:33:29.317Z,95582.00
2022-09-26T01:36:20.671Z,95578.03
2022-09-26T01:39:12.566Z,95576.75
2022-09-26T01:41:49.949Z,95574.63
2022-09-26T01:44:53.655Z,95576.69
2022-09-26T01:47:28.401Z,95574.47
2022-09-26T01:50:36.220Z,95580.91
2022-09-26T01:53:09.402Z,95576.28
2022-09-26T01:55:51.224Z,95574.56
2022-09-26T01:58:26.216Z,95575.31
2022-09-26T02:00:57.615Z,95569.22
2022-09-26T02:03:28.520Z,95579.41
2022-09-26T02:06:03.331Z,95573.03
2022-09-26T02:08:41.124Z,95562.69
2022-09-26T02:11:17.835Z,95559.50
2022-09-26T02:14:20.881Z,95552.16
2022-09-26T02:16:53.151Z,95553.44
2022-09-26T02:19:37.831Z,95543.75
2022-09-26T02:22:03.590Z,95543.81
2022-09-26T02:24:29.360Z,95536.88
2022-09-26T02:26:55.596Z,95542.81
2022-09-26T02:29:21.436Z,95536.31
2022-09-26T02:31:54.835Z,95531.91
2022-09-26T02:34:20.990Z,95520.00
2022-09-26T02:36:46.808Z,95526.34
2022-09-26T02:39:13.027Z,95511.09
2022-09-26T02:42:03.817Z,95512.50
2022-09-26T02:44:38.836Z,95515.75
2022-09-26T02:47:13.302Z,95508.44
2022-09-26T02:49:39.009Z,95498.31
2022-09-26T02:52:33.476Z,95491.88
2022-09-26T02:55:14.990Z,95488.41
2022-09-26T02:58:03.172Z,95486.06
2022-09-26T03:00:43.607Z,95483.06
2022-09-26T03:03:39.663Z,95472.72
2022-09-26T03:06:10.995Z,95473.50
2022-09-26T03:08:45.097Z,95466.50
2022-09-26T03:11:15.270Z,95461.41
2022-09-26T03:13:42.363Z,95455.66
2022-09-26T03:16:09.421Z,95456.00
2022-09-26T03:18:40.630Z,95439.59
2022-09-26T03:21:06.797Z,95440.81
2022-09-26T03:23:32.570Z,95427.13
2022-09-26T03:26:07.671Z,95424.81
2022-09-26T03:28:37.671Z,95428.56
2022-09-26T03:31:03.968Z,95427.94
2022-09-26T03:33:29.827Z,95423.72
2022-09-26T03:35:56.100Z,95417.97
2022-09-26T03:38:21.851Z,95419.03
2022-09-26T03:40:47.651Z,95416.78
2022-09-26T03:43:13.467Z,95408.03
2022-09-26T03:45:39.251Z,95409.78
2022-09-26T03:48:05.606Z,95403.03
2022-09-26T03:50:33.120Z,95404.69
2022-09-26T03:53:00.213Z,95395.06
2022-09-26T03:55:26.241Z,95398.34
2022-09-26T03:57:52.060Z,95391.16
2022-09-26T04:00:18.071Z,95388.22
2022-09-26T04:02:44.210Z,95382.75
2022-09-26T04:05:10.287Z,95372.91
2022-09-26T04:07:36.021Z,95374.38
2022-09-26T04:10:01.832Z,95367.63
2022-09-26T04:12:27.604Z,95364.13
2022-09-26T04:14:53.798Z,95365.41
2022-09-26T04:17:19.700Z,95360.16
2022-09-26T04:19:45.849Z,95354.50
2022-09-26T04:22:11.731Z,95355.03
2022-09-26T04:24:37.505Z,95346.06
2022-09-26T04:27:04.261Z,95335.31
2022-09-26T04:29:30.050Z,95338.38
2022-09-26T04:31:55.903Z,95333.69
2022-09-26T04:34:27.324Z,95329.22
2022-09-26T04:36:53.451Z,95323.66
2022-09-26T04:39:19.237Z,95320.03
2022-09-26T04:41:45.002Z,95321.56
2022-09-26T04:44:11.986Z,95304.66
2022-09-26T04:46:37.814Z,95308.91
2022-09-26T04:49:04.195Z,95305.03
2022-09-26T04:51:30.970Z,95292.41
2022-09-26T04:53:57.495Z,95286.91
2022-09-26T04:56:25.851Z,95288.63
2022-09-26T04:58:54.841Z,95286.50
2022-09-26T05:01:21.695Z,95284.44
2022-09-26T05:03:47.881Z,95292.63
2022-09-26T05:06:14.779Z,95279.50
2022-09-26T05:08:45.551Z,95282.19
2022-09-26T05:11:12.340Z,95282.38
2022-09-26T05:13:38.303Z,95271.75
2022-09-26T05:16:07.737Z,95270.81
2022-09-26T05:18:35.572Z,95268.28
2022-09-26T05:21:02.899Z,95269.84
2022-09-26T05:23:47.134Z,95273.81
2022-09-26T05:26:22.705Z,95265.31
2022-09-26T05:28:53.035Z,95258.03
2022-09-26T05:31:20.160Z,95261.66
2022-09-26T05:33:46.185Z,95258.50
2022-09-26T05:36:12.747Z,95260.88
2022-09-26T05:38:39.191Z,95261.81
2022-09-26T05:41:05.261Z,95256.59
2022-09-26T05:43:32.841Z,95257.03
2022-09-26T05:46:01.197Z,95246.50
2022-09-26T05:48:29.040Z,95249.72
2022-09-26T05:50:55.303Z,95249.91
2022-09-26T05:53:21.734Z,95247.19
2022-09-26T05:55:51.000Z,95244.06
2022-09-26T05:58:20.164Z,95241.78
2022-09-26T06:00:47.264Z,95250.69
2022-09-26T06:03:14.761Z,95245.06
2022-09-26T06:05:41.858Z,95238.00
2022-09-26T06:08:09.211Z,95235.59
2022-09-26T06:10:37.801Z,95234.50
2022-09-26T06:13:04.986Z,95234.88
2022-09-26T06:15:30.971Z,95228.47
2022-09-26T06:18:06.425Z,95230.59
2022-09-26T06:20:33.101Z,95225.59
2022-09-26T06:23:01.001Z,95226.75
2022-09-26T06:25:27.516Z,95224.38
2022-09-26T06:28:00.016Z,95214.59
2022-09-26T06:30:26.489Z,95219.19
2022-09-26T06:32:52.563Z,95219.47
2022-09-26T06:35:20.665Z,95218.44
2022-09-26T06:37:47.363Z,95205.13
2022-09-26T06:40:13.790Z,95205.88
2022-09-26T06:42:39.977Z,95196.16
2022-09-26T06:45:07.954Z,95191.53
2022-09-26T06:47:34.831Z,95182.41
2022-09-26T06:50:01.419Z,95191.53
2022-09-26T06:52:33.983Z,95184.63
2022-09-26T06:55:01.694Z,95177.16
2022-09-26T06:57:29.323Z,95171.19
2022-09-26T06:59:55.608Z,95167.56
2022-09-26T07:02:21.493Z,95166.97
2022-09-26T07:04:49.625Z,95166.78
2022-09-26T07:07:15.439Z,95166.91
2022-09-26T07:09:41.261Z,95160.31
2022-09-26T07:12:15.749Z,95163.88
2022-09-26T07:14:42.879Z,95166.88
2022-09-26T07:17:14.933Z,95151.84
2022-09-26T07:19:41.128Z,95152.78
2022-09-26T07:22:08.729Z,95151.00
2022-09-26T07:24:34.988Z,95155.06
2022-09-26T07:27:02.169Z,95148.50
2022-09-26T07:29:28.231Z,95141.69
2022-09-26T07:31:54.224Z,95140.19
2022-09-26T07:34:24.129Z,95139.97
2022-09-26T07:36:51.309Z,95138.56
2022-09-26T07:39:17.706Z,95132.47
2022-09-26T07:41:48.339Z,95137.72
2022-09-26T07:47:18.913Z,95131.63
2022-09-26T07:50:03.347Z,95125.34
2022-09-26T07:52:30.012Z,95119.75
2022-09-26T07:54:56.039Z,95129.44
2022-09-26T07:57:21.861Z,95116.53
2022-09-26T07:59:49.650Z,95114.06
2022-09-26T08:02:34.960Z,95118.69
2022-09-26T08:05:02.774Z,95120.31
2022-09-26T08:07:30.388Z,95112.13
2022-09-26T08:09:57.975Z,95113.19
2022-09-26T08:12:26.318Z,95107.66
2022-09-26T08:14:52.309Z,95108.69
2022-09-26T08:17:21.731Z,95107.13
2022-09-26T08:19:47.740Z,95102.75
2022-09-26T08:22:13.844Z,95095.22
2022-09-26T08:24:39.726Z,95096.78
2022-09-26T08:27:05.680Z,95101.13
2022-09-26T08:29:31.701Z,95104.47
2022-09-26T08:32:00.253Z,95104.28
2022-09-26T08:34:26.071Z,95107.19
2022-09-26T08:36:53.135Z,95104.91
2022-09-26T08:39:20.864Z,95091.19
2022-09-26T08:42:17.345Z,95094.88
2022-09-26T08:45:01.838Z,95094.38
2022-09-26T08:47:43.545Z,95099.06
2022-09-26T08:50:31.821Z,95099.44
2022-09-26T08:53:09.739Z,95106.38
2022-09-26T08:55:41.064Z,95097.94
2022-09-26T08:58:28.932Z,95093.47
2022-09-26T09:01:00.731Z,95093.63
2022-09-26T09:03:49.380Z,95092.09
2022-09-26T09:06:16.484Z,95085.25
2022-09-26T09:08:55.542Z,95080.00
2022-09-26T09:11:54.679Z,95081.31
2022-09-26T09:15:20.458Z,95082.72
2022-09-26T09:18:18.389Z,95074.16
2022-09-26T09:21:13.298Z,95073.25
2022-09-26T09:23:41.764Z,95070.97
2022-09-26T09:29:36.532Z,95079.31
2022-09-26T09:32:04.140Z,95067.09
2022-09-26T09:34:40.164Z,95073.69
2022-09-26T09:37:17.607Z,95064.22
2022-09-26T09:39:46.962Z,95071.91
2022-09-26T09:42:23.130Z,95076.13
2022-09-26T09:44:58.509Z,95071.13
2022-09-26T09:47:28.585Z,95069.88
2022-09-26T09:49:56.449Z,95064.50
2022-09-26T09:52:46.919Z,95069.31
2022-09-26T09:55:40.020Z,95066.72
2022-09-26T09:58:14.968Z,95060.19
2022-09-26T10:00:51.341Z,95048.31
2022-09-26T10:03:43.384Z,95054.94
2022-09-26T10:06:44.248Z,95049.09
2022-09-26T10:08:56.429Z,95052.22
2022-09-26T10:11:40.928Z,95051.66
2022-09-26T10:14:14.791Z,95042.34
2022-09-26T10:17:08.732Z,95028.66
2022-09-26T10:19:39.926Z,95027.28
2022-09-26T10:22:14.648Z,95020.94
2022-09-26T10:24:40.842Z,95024.81
2022-09-26T10:27:24.751Z,95020.03
2022-09-26T10:30:02.198Z,95020.91
2022-09-26T10:32:28.584Z,95012.47
2022-09-26T10:35:19.720Z,95017.25
2022-09-26T10:38:27.084Z,95008.00
2022-09-26T10:40:55.661Z,94998.69
2022-09-26T10:43:32.059Z,95007.41
2022-09-26T10:46:24.532Z,94988.44
2022-09-26T10:48:54.524Z,94988.94
2022-09-26T10:51:36.628Z,94989.19
2022-09-26T10:54:16.540Z,94984.06
2022-09-26T10:56:47.019Z,94982.31
2022-09-26T10:59:18.466Z,94970.22
2022-09-26T11:01:51.173Z,94970.22
2022-09-26T11:04:43.172Z,94973.72
2022-09-26T11:07:17.879Z,94969.22
2022-09-26T11:09:46.271Z,94973.38
2022-09-26T11:12:27.171Z,94971.53
2022-09-26T11:14:56.887Z,94970.88
2022-09-26T11:17:42.615Z,94951.16
2022-09-26T11:20:13.205Z,94950.81
2022-09-26T11:22:48.698Z,94931.16
2022-09-26T11:25:21.805Z,94932.56
2022-09-26T11:27:51.048Z,94917.91
2022-09-26T11:30:20.120Z,94910.84
2022-09-26T11:32:55.448Z,94905.31
2022-09-26T11:35:46.029Z,94898.53
2022-09-26T11:38:37.612Z,94899.28
2022-09-26T11:41:37.653Z,94889.31
2022-09-26T11:44:34.518Z,94889.59
2022-09-26T11:47:33.572Z,94882.13
2022-09-26T11:50:39.274Z,94897.84
2022-09-26T11:53:14.516Z,94901.78
2022-09-26T11:55:50.475Z,94911.47
2022-09-26T11:58:21.912Z,94879.34
2022-09-26T12:01:03.593Z,94870.75
2022-09-26T12:03:32.635Z,94865.94
2022-09-26T12:06:11.872Z,94845.06
2022-09-26T12:09:17.974Z,94859.22
2022-09-26T12:11:48.324Z,94844.75
2022-09-26T12:14:27.089Z,94830.09
2022-09-26T12:17:00.581Z,94826.41
2022-09-26T12:19:56.799Z,94824.59
2022-09-26T12:22:41.959Z,94816.81
2022-09-26T12:25:55.009Z,94817.91
2022-09-26T12:28:51.684Z,94803.78
2022-09-26T12:31:56.247Z,94810.09
2022-09-26T12:34:32.288Z,94790.63
2022-09-26T12:37:17.114Z,94784.56
2022-09-26T12:40:24.160Z,94799.81
2022-09-26T12:43:13.308Z,94777.47
2022-09-26T12:45:56.423Z,94798.00
2022-09-26T12:49:03.559Z,94789.06
2022-09-26T12:51:44.125Z,94783.78
2022-09-26T12:54:34.741Z,94778.00
2022-09-26T12:57:26.889Z,94763.53
2022-09-26T12:59:58.661Z,94757.47
2022-09-26T13:02:33.665Z,94764.84
2022-09-26T13:05:18.514Z,94754.84
2022-09-26T13:07:47.217Z,94766.16
2022-09-26T13:10:36.294Z,94760.88
2022-09-26T13:13:22.391Z,94755.09
2022-09-26T13:16:20.657Z,94769.56
2022-09-26T13:18:51.619Z,94751.44
2022-09-26T13:21:24.297Z,94743.25
2022-09-26T13:24:08.813Z,94747.19
2022-09-26T13:26:44.413Z,94749.84
2022-09-26T13:29:20.119Z,94748.28
2022-09-26T13:31:55.547Z,94744.56
2022-09-26T13:34:30.594Z,94743.00
2022-09-26T13:36:58.784Z,94745.09
2022-09-26T13:39:53.822Z,94747.47
2022-09-26T13:42:46.702Z,94734.06
2022-09-26T13:45:44.745Z,94733.81
2022-09-26T13:48:26.149Z,94754.31
2022-09-26T13:50:57.568Z,94749.59
2022-09-26T13:53:35.147Z,94740.63
2022-09-26T13:56:40.553Z,94738.81
2022-09-26T13:59:12.216Z,94744.34
2022-09-26T14:01:58.679Z,94740.91
2022-09-26T14:04:34.626Z,94732.22
2022-09-26T14:07:28.110Z,94724.34
2022-09-26T14:10:34.120Z,94719.84
2022-09-26T14:13:05.830Z,94709.09
2022-09-26T14:15:46.923Z,94718.81
2022-09-26T14:18:30.633Z,94705.94
2022-09-26T14:21:05.843Z,94708.81
2022-09-26T14:23:40.368Z,94708.31
2022-09-26T14:26:17.270Z,94699.34
2022-09-26T14:28:50.821Z,94707.47
2022-09-26T14:31:25.743Z,94704.34
2022-09-26T14:34:17.861Z,94704.34
2022-09-26T14:36:44.948Z,94696.47
2022-09-26T14:39:31.382Z,94691.47
2022-09-26T14:42:05.707Z,94681.69
2022-09-26T14:44:36.340Z,94681.44
2022-09-26T14:47:07.634Z,94683.25
2022-09-26T14:49:34.870Z,94675.16
2022-09-26T14:52:06.361Z,94670.94
2022-09-26T14:54:38.882Z,94667.78
2022-09-26T14:57:07.670Z,94676.72
2022-09-26T14:59:33.439Z,94663.59
2022-09-26T15:02:21.089Z,94653.31
2022-09-26T15:04:53.632Z,94654.38
2022-09-26T15:07:23.459Z,94650.72
2022-09-26T15:10:08.565Z,94649.13
2022-09-26T15:12:43.501Z,94652.28
2022-09-26T15:15:35.319Z,94647.31
2022-09-26T15:18:16.854Z,94639.94
2022-09-26T15:20:49.721Z,94634.97
2022-09-26T15:23:21.606Z,94627.84
2022-09-26T15:25:47.528Z,94631.28
2022-09-26T15:28:13.412Z,94624.97
2022-09-26T15:30:41.082Z,94637.59
2022-09-26T15:33:16.534Z,94605.53
2022-09-26T15:35:51.259Z,94616.28
2022-09-26T15:38:17.327Z,94621.81
2022-09-26T15:40:43.271Z,94606.03
2022-09-26T15:43:09.078Z,94608.16
2022-09-26T15:45:47.011Z,94619.44
2022-09-26T15:48:19.040Z,94604.22
2022-09-26T15:50:56.922Z,94596.06
2022-09-26T15:53:44.081Z,94597.63
2022-09-26T15:56:09.924Z,94581.84
2022-09-26T15:58:38.731Z,94585.53
2022-09-26T16:01:05.962Z,94580.84
2022-09-26T16:03:45.013Z,94563.75
2022-09-26T16:06:33.517Z,94567.69
2022-09-26T16:08:59.843Z,94559.03
2022-09-26T16:11:26.922Z,94564.81
2022-09-26T16:13:53.305Z,94563.22
2022-09-26T16:16:31.566Z,94550.34
2022-09-26T16:19:04.510Z,94567.41
2022-09-26T16:21:35.616Z,94547.72
2022-09-26T16:24:26.424Z,94565.31
2022-09-26T16:26:53.764Z,94557.97
2022-09-26T16:29:34.818Z,94558.50
2022-09-26T16:32:02.843Z,94557.69
2022-09-26T16:34:29.730Z,94555.06
2022-09-26T16:36:57.249Z,94543.75
2022-09-26T16:39:27.015Z,94546.94
2022-09-26T16:42:03.367Z,94531.94
2022-09-26T16:44:35.994Z,94537.22
2022-09-26T16:47:04.917Z,94542.97
2022-09-26T16:49:47.581Z,94550.34
2022-09-26T16:52:27.131Z,94544.31
2022-09-26T16:55:01.443Z,94536.44
2022-09-26T16:57:34.479Z,94528.25
2022-09-26T17:00:36.731Z,94527.50
2022-09-26T17:03:12.318Z,94524.84
2022-09-26T17:05:38.145Z,94519.81
2022-09-26T17:08:04.362Z,94518.25
2022-09-26T17:10:36.934Z,94516.16
2022-09-26T17:13:04.355Z,94510.41
2022-09-26T17:15:31.976Z,94505.44
2022-09-26T17:18:00.263Z,94505.72
2022-09-26T17:20:27.751Z,94502.31
2022-09-26T17:22:54.233Z,94503.34
2022-09-26T17:25:24.502Z,94500.19
2022-09-26T17:27:57.353Z,94490.47
2022-09-26T17:30:23.193Z,94488.38
2022-09-26T17:32:53.554Z,94486.81
2022-09-26T17:35:22.465Z,94478.94
2022-09-26T17:37:48.522Z,94486.25
2022-09-26T17:40:20.116Z,94488.09
2022-09-26T17:42:46.254Z,94468.69
2022-09-26T17:45:12.177Z,94471.84
2022-09-26T17:47:39.105Z,94468.94
2022-09-26T17:50:06.533Z,94475.22
2022-09-26T17:52:34.759Z,94460.25
2022-09-26T17:55:04.585Z,94461.28
2022-09-26T17:57:32.422Z,94457.34
2022-09-26T18:00:01.411Z,94470.47
2022-09-26T18:02:35.769Z,94449.50
2022-09-26T18:05:07.739Z,94445.03
2022-09-26T18:07:40.341Z,94453.69
2022-09-26T18:10:21.350Z,94450.28
2022-09-26T18:12:55.934Z,94450.56
2022-09-26T18:15:22.684Z,94449.28
2022-09-26T18:17:50.054Z,94436.13
2022-09-26T18:20:18.096Z,94442.16
2022-09-26T18:22:47.095Z,94437.19
2022-09-26T18:25:20.907Z,94436.41
2022-09-26T18:27:52.516Z,94435.59
2022-09-26T18:30:20.499Z,94429.28
2022-09-26T18:32:53.394Z,94426.97
2022-09-26T18:35:26.519Z,94426.47
2022-09-26T18:37:57.407Z,94420.16
2022-09-26T18:40:25.715Z,94419.38
2022-09-26T18:42:54.051Z,94413.06
2022-09-26T18:45:27.868Z,94423.28
2022-09-26T18:47:54.398Z,94418.59
2022-09-26T18:50:41.273Z,94410.72
2022-09-26T18:53:13.693Z,94406.53
2022-09-26T18:55:58.215Z,94411.50
2022-09-26T18:58:24.843Z,94412.28
2022-09-26T19:00:54.531Z,94404.13
2022-09-26T19:03:22.442Z,94405.44
2022-09-26T19:05:50.138Z,94392.84
2022-09-26T19:08:37.552Z,94388.63
2022-09-26T19:11:12.285Z,94390.19
2022-09-26T19:13:39.764Z,94391.50
2022-09-26T19:16:06.404Z,94399.66
2022-09-26T19:18:32.475Z,94389.97
2022-09-26T19:20:58.933Z,94382.63
2022-09-26T19:23:30.916Z,94389.97
2022-09-26T19:25:56.771Z,94386.00
2022-09-26T19:28:25.582Z,94385.22
2022-09-26T19:30:51.978Z,94385.22
2022-09-26T19:33:18.298Z,94382.34
2022-09-26T19:35:44.603Z,94376.06
2022-09-26T19:38:22.435Z,94374.47
2022-09-26T19:40:50.637Z,94377.63
2022-09-26T19:43:17.574Z,94373.66
2022-09-26T19:45:44.449Z,94378.69
2022-09-26T19:48:17.057Z,94370.00
2022-09-26T19:50:45.046Z,94373.44
2022-09-26T19:53:16.564Z,94362.44
2022-09-26T19:55:43.468Z,94364.28
2022-09-26T19:58:13.599Z,94371.34
2022-09-26T20:00:44.056Z,94358.22
2022-09-26T20:03:18.650Z,94361.66
2022-09-26T20:05:45.715Z,94354.28
2022-09-26T20:08:15.404Z,94355.63
2022-09-26T20:10:41.380Z,94352.44
2022-09-26T20:13:07.231Z,94340.66
2022-09-26T20:15:33.216Z,94339.84
2022-09-26T20:17:59.644Z,94347.19
2022-09-26T20:20:26.945Z,94345.88
2022-09-26T20:22:54.785Z,94336.16
2022-09-26T20:25:27.002Z,94337.25
2022-09-26T20:27:53.764Z,94340.63
2022-09-26T20:30:38.773Z,94335.09
2022-09-26T20:33:05.541Z,94333.81
2022-09-26T20:35:35.971Z,94334.09
2022-09-26T20:38:05.127Z,94333.78
2022-09-26T20:40:31.420Z,94333.25
2022-09-26T20:43:05.255Z,94335.09
2022-09-26T20:45:39.965Z,94329.59
2022-09-26T20:48:13.449Z,94335.34
2022-09-26T20:50:39.274Z,94332.44
2022-09-26T20:53:12.497Z,94334.78
2022-09-26T20:55:43.201Z,94336.41
2022-09-26T20:58:09.923Z,94331.94
2022-09-26T21:00:37.987Z,94334.78
2022-09-26T21:03:04.919Z,94330.59
2022-09-26T21:05:31.162Z,94328.72
2022-09-26T21:07:59.447Z,94335.84
2022-09-26T21:10:25.242Z,94331.94
2022-09-26T21:12:51.439Z,94329.53
2022-09-26T21:15:18.061Z,94329.31
2022-09-26T21:17:45.682Z,94325.09
2022-09-26T21:20:25.392Z,94327.75
2022-09-26T21:22:52.162Z,94328.00
2022-09-26T21:25:20.258Z,94329.81
2022-09-26T21:27:48.676Z,94314.56
2022-09-26T21:30:15.829Z,94320.03
2022-09-26T21:32:46.309Z,94315.34
2022-09-26T21:35:14.275Z,94318.50
2022-09-26T21:37:45.975Z,94320.09
2022-09-26T21:40:12.479Z,94314.91
2022-09-26T21:42:40.240Z,94313.03
2022-09-26T21:45:09.626Z,94309.63
2022-09-26T21:47:38.491Z,94314.56
2022-09-26T21:50:07.558Z,94320.38
2022-09-26T21:52:39.886Z,94311.44
2022-09-26T21:55:11.804Z,94304.63
2022-09-26T21:57:41.579Z,94298.31
2022-09-26T22:00:09.857Z,94302.00
2022-09-26T22:02:36.096Z,94294.41
2022-09-26T22:05:01.997Z,94294.13
2022-09-26T22:07:27.924Z,94292.28
2022-09-26T22:09:53.800Z,94284.94
2022-09-26T22:12:19.634Z,94282.84
2022-09-26T22:14:45.433Z,94278.16
2022-09-26T22:17:11.373Z,94282.56
2022-09-26T22:19:37.677Z,94274.16
2022-09-26T22:22:03.546Z,94262.34
2022-09-26T22:24:29.610Z,94258.41
2022-09-26T22:26:55.641Z,94260.28
2022-09-26T22:29:21.521Z,94260.78
2022-09-26T22:31:47.334Z,94259.44
2022-09-26T22:34:13.389Z,94253.44
2022-09-26T22:36:39.285Z,94252.91
2022-09-26T22:39:05.415Z,94245.31
2022-09-26T22:41:31.369Z,94244.53
2022-09-26T22:43:57.331Z,94244.25
2022-09-26T22:46:23.580Z,94246.28
2022-09-26T22:48:49.767Z,94241.59
2022-09-26T22:51:16.611Z,94234.53
2022-09-26T22:53:43.487Z,94234.28
2022-09-26T22:56:14.159Z,94221.75
2022-09-26T22:58:45.936Z,94224.63
2022-09-26T23:01:16.714Z,94215.63
2022-09-26T23:03:42.585Z,94224.53
2022-09-26T23:06:09.484Z,94226.91
2022-09-26T23:08:35.971Z,94224.00
2022-09-26T23:11:03.366Z,94219.03
2022-09-26T23:13:30.915Z,94218.00
2022-09-26T23:16:06.117Z,94217.47
2022-09-26T23:18:33.916Z,94203.81
2022-09-26T23:21:14.156Z,94190.94
2022-09-26T23:23:42.679Z,94196.22
2022-09-26T23:26:15.887Z,94192.78
2022-09-26T23:28:41.960Z,94194.88
2022-09-26T23:31:10.234Z,94195.34
2022-09-26T23:33:36.483Z,94199.13
2022-09-26T23:36:03.001Z,94203.16
2022-09-26T23:38:28.954Z,94205.44
2022-09-26T23:40:55.003Z,94199.13
2022-09-26T23:43:21.229Z,94200.19
2022-09-26T23:45:47.756Z,94208.34
2022-09-26T23:48:13.771Z,94194.72
2022-09-26T23:50:42.241Z,94194.50
2022-09-26T23:53:08.046Z,94200.53
2022-09-26T23:55:34.132Z,94201.31
2022-09-26T23:57:59.936Z,94204.44
